createdAt,value
2018-03-15T00:01:15.344Z,11.21
2018-03-15T00:03:42.913Z,11.11
2018-03-15T00:06:10.466Z,11.09
2018-03-15T00:08:38.099Z,11.11
2018-03-15T00:11:05.677Z,11.07
2018-03-15T00:13:33.259Z,11.08
2018-03-15T00:16:00.818Z,11.05
2018-03-15T00:18:28.429Z,11.05
2018-03-15T00:20:56.000Z,11.06
2018-03-15T00:23:23.553Z,11.03
2018-03-15T00:25:51.122Z,10.98
2018-03-15T00:28:18.678Z,10.97
2018-03-15T00:30:46.306Z,10.96
2018-03-15T00:33:14.719Z,10.95
2018-03-15T00:35:42.347Z,10.91
2018-03-15T00:38:09.906Z,10.95
2018-03-15T00:40:37.524Z,10.92
2018-03-15T00:43:05.143Z,10.89
2018-03-15T00:45:32.710Z,10.88
2018-03-15T00:48:00.274Z,10.84
2018-03-15T00:50:27.829Z,10.78
2018-03-15T00:52:55.394Z,10.80
2018-03-15T00:55:23.015Z,10.85
2018-03-15T00:57:50.582Z,10.79
2018-03-15T01:00:18.151Z,10.81
2018-03-15T01:02:45.840Z,10.77
2018-03-15T01:05:13.470Z,10.71
2018-03-15T01:07:41.053Z,10.73
2018-03-15T01:10:08.624Z,10.57
2018-03-15T01:12:36.178Z,10.47
2018-03-15T01:15:03.742Z,10.42
2018-03-15T01:17:31.368Z,10.45
2018-03-15T01:19:58.930Z,10.48
2018-03-15T01:22:26.484Z,10.39
2018-03-15T01:24:54.069Z,10.38
2018-03-15T01:27:21.632Z,10.34
2018-03-15T01:29:49.302Z,10.27
2018-03-15T01:32:16.876Z,10.20
2018-03-15T01:34:44.499Z,10.20
2018-03-15T01:37:12.124Z,10.14
2018-03-15T01:39:39.747Z,10.04
2018-03-15T01:42:07.314Z,9.92
2018-03-15T01:44:34.873Z,9.82
2018-03-15T01:47:02.434Z,9.64
2018-03-15T01:49:30.005Z,9.53
2018-03-15T01:51:57.576Z,9.43
2018-03-15T01:54:25.129Z,9.36
2018-03-15T01:56:52.694Z,9.31
2018-03-15T01:59:20.250Z,9.26
2018-03-15T02:01:47.807Z,9.23
2018-03-15T02:04:15.369Z,9.16
2018-03-15T02:06:42.926Z,9.15
2018-03-15T02:09:10.493Z,9.13
2018-03-15T02:11:38.046Z,9.05
2018-03-15T02:14:05.717Z,9.02
2018-03-15T02:16:33.339Z,8.99
2018-03-15T02:19:00.933Z,8.99
2018-03-15T02:21:28.486Z,9.00
2018-03-15T02:23:56.048Z,9.00
2018-03-15T02:26:23.632Z,9.00
2018-03-15T02:28:51.189Z,9.01
2018-03-15T02:31:18.828Z,9.04
2018-03-15T02:33:46.386Z,9.05
2018-03-15T02:36:14.003Z,9.05
2018-03-15T02:38:41.642Z,8.98
2018-03-15T02:41:09.205Z,8.97
2018-03-15T02:43:36.777Z,8.85
2018-03-15T02:46:04.338Z,8.85
2018-03-15T02:48:31.897Z,8.76
2018-03-15T02:50:59.460Z,8.73
2018-03-15T02:53:27.087Z,8.71
2018-03-15T02:55:54.646Z,8.64
2018-03-15T02:58:22.206Z,8.62
2018-03-15T03:00:49.766Z,8.62
2018-03-15T03:03:17.321Z,8.58
2018-03-15T03:05:44.891Z,8.62
2018-03-15T03:08:12.513Z,8.60
2018-03-15T03:10:40.079Z,8.53
2018-03-15T03:13:07.635Z,8.58
2018-03-15T03:15:35.259Z,8.59
2018-03-15T03:18:02.883Z,8.56
2018-03-15T03:20:30.515Z,8.52
2018-03-15T03:22:58.074Z,8.50
2018-03-15T03:25:25.634Z,8.43
2018-03-15T03:27:53.260Z,8.39
2018-03-15T03:30:20.823Z,8.35
2018-03-15T03:32:48.455Z,8.33
2018-03-15T03:35:16.079Z,8.28
2018-03-15T03:37:43.646Z,8.21
2018-03-15T03:40:11.210Z,8.15
2018-03-15T03:42:38.789Z,8.22
2018-03-15T03:45:06.362Z,8.18
2018-03-15T03:47:33.995Z,8.14
2018-03-15T03:50:01.638Z,8.12
2018-03-15T03:52:29.236Z,8.11
2018-03-15T03:54:56.810Z,7.99
2018-03-15T03:57:24.388Z,7.98
2018-03-15T03:59:52.031Z,7.92
2018-03-15T04:02:19.590Z,7.94
2018-03-15T04:04:47.166Z,7.93
2018-03-15T04:07:14.799Z,7.85
2018-03-15T04:09:42.361Z,7.91
2018-03-15T04:12:09.930Z,7.90
2018-03-15T04:14:37.485Z,7.88
2018-03-15T04:17:05.054Z,7.83
2018-03-15T04:19:32.678Z,7.79
2018-03-15T04:22:00.251Z,7.76
2018-03-15T04:24:27.878Z,7.73
2018-03-15T04:26:55.445Z,7.71
2018-03-15T04:29:23.086Z,7.73
2018-03-15T04:31:50.725Z,7.72
2018-03-15T04:34:18.301Z,7.69
2018-03-15T04:36:45.862Z,7.66
2018-03-15T04:39:13.435Z,7.68
2018-03-15T04:41:41.070Z,7.67
2018-03-15T04:44:08.661Z,7.72
2018-03-15T04:46:36.219Z,7.74
2018-03-15T04:49:03.849Z,7.87
2018-03-15T04:51:31.480Z,8.01
2018-03-15T04:53:59.047Z,8.17
2018-03-15T04:56:26.614Z,8.26
2018-03-15T04:58:54.243Z,8.35
2018-03-15T05:01:21.878Z,8.48
2018-03-15T05:03:49.442Z,8.60
2018-03-15T05:06:17.071Z,8.73
2018-03-15T05:08:44.696Z,8.86
2018-03-15T05:11:12.262Z,9.00
2018-03-15T05:13:39.825Z,9.14
2018-03-15T05:16:07.451Z,9.25
2018-03-15T05:18:35.022Z,9.42
2018-03-15T05:21:02.583Z,9.62
2018-03-15T05:23:30.220Z,9.80
2018-03-15T05:25:57.881Z,10.00
2018-03-15T05:28:25.558Z,10.25
2018-03-15T05:30:53.165Z,10.50
2018-03-15T05:33:20.786Z,10.72
2018-03-15T05:35:48.429Z,10.93
2018-03-15T05:38:15.993Z,11.12
2018-03-15T05:40:43.565Z,11.35
2018-03-15T05:43:11.130Z,11.83
2018-03-15T05:45:38.758Z,12.93
2018-03-15T05:48:06.323Z,14.13
2018-03-15T05:50:33.888Z,15.11
2018-03-15T05:53:01.526Z,15.82
2018-03-15T05:55:29.090Z,16.36
2018-03-15T05:57:56.752Z,16.82
2018-03-15T06:00:24.328Z,17.19
2018-03-15T06:02:51.954Z,17.44
2018-03-15T06:05:19.514Z,17.57
2018-03-15T06:07:47.148Z,17.29
2018-03-15T06:10:14.736Z,17.30
2018-03-15T06:12:42.298Z,17.00
2018-03-15T06:15:09.879Z,16.93
2018-03-15T06:17:37.448Z,17.09
2018-03-15T06:20:05.078Z,17.24
2018-03-15T06:22:32.650Z,17.19
2018-03-15T06:25:00.214Z,16.41
2018-03-15T06:27:27.804Z,16.27
2018-03-15T06:29:55.383Z,16.20
2018-03-15T06:32:23.028Z,15.29
2018-03-15T06:34:50.617Z,15.13
2018-03-15T06:37:18.259Z,15.62
2018-03-15T06:39:45.828Z,15.13
2018-03-15T06:42:13.455Z,15.23
2018-03-15T06:44:41.027Z,14.94
2018-03-15T06:47:08.658Z,14.85
2018-03-15T06:49:36.303Z,14.78
2018-03-15T06:52:03.863Z,15.15
2018-03-15T06:54:31.539Z,15.38
2018-03-15T06:56:59.099Z,15.53
2018-03-15T06:59:26.701Z,15.50
2018-03-15T07:01:54.299Z,16.45
2018-03-15T07:04:21.892Z,16.04
2018-03-15T07:06:49.528Z,15.72
2018-03-15T07:09:17.089Z,15.45
2018-03-15T07:11:44.665Z,15.53
2018-03-15T07:14:12.252Z,15.33
2018-03-15T07:16:39.858Z,15.05
2018-03-15T07:19:07.429Z,15.19
2018-03-15T07:21:35.017Z,15.11
2018-03-15T07:24:02.586Z,15.30
2018-03-15T07:26:30.228Z,15.58
2018-03-15T07:28:57.804Z,15.55
2018-03-15T07:31:25.415Z,15.29
2018-03-15T07:33:53.043Z,15.47
2018-03-15T07:36:20.695Z,15.61
2018-03-15T07:38:48.318Z,15.06
2018-03-15T07:41:15.882Z,15.10
2018-03-15T07:43:43.467Z,15.69
2018-03-15T07:46:11.040Z,15.76
2018-03-15T07:48:38.615Z,15.92
2018-03-15T07:51:06.239Z,15.86
2018-03-15T07:53:33.875Z,15.84
2018-03-15T07:56:01.586Z,15.92
2018-03-15T07:58:29.179Z,15.97
2018-03-15T08:00:56.750Z,15.91
2018-03-15T08:03:24.307Z,15.96
2018-03-15T08:05:51.885Z,16.12
2018-03-15T08:08:19.507Z,16.13
2018-03-15T08:10:47.136Z,16.35
2018-03-15T08:13:14.699Z,16.61
2018-03-15T08:15:42.323Z,17.02
2018-03-15T08:18:09.958Z,16.52
2018-03-15T08:20:37.542Z,16.81
2018-03-15T08:23:05.131Z,16.73
2018-03-15T08:25:32.698Z,16.86
2018-03-15T08:28:00.262Z,16.74
2018-03-15T08:30:27.835Z,17.08
2018-03-15T08:32:55.476Z,16.93
2018-03-15T08:35:23.047Z,17.21
2018-03-15T08:37:50.667Z,17.34
2018-03-15T08:40:18.242Z,17.31
2018-03-15T08:42:45.803Z,17.33
2018-03-15T08:45:13.379Z,17.49
2018-03-15T08:47:41.003Z,17.82
2018-03-15T08:50:08.584Z,18.13
2018-03-15T08:52:36.220Z,17.93
2018-03-15T08:55:03.858Z,18.13
2018-03-15T08:57:31.428Z,18.28
2018-03-15T08:59:59.123Z,18.51
2018-03-15T09:02:26.691Z,18.38
2018-03-15T09:04:54.268Z,18.53
2018-03-15T09:07:21.845Z,18.56
2018-03-15T09:09:49.414Z,18.86
2018-03-15T09:12:17.050Z,18.93
2018-03-15T09:14:44.675Z,18.87
2018-03-15T09:17:12.254Z,18.76
2018-03-15T09:19:39.815Z,18.30
2018-03-15T09:22:07.510Z,18.61
2018-03-15T09:24:35.074Z,18.12
2018-03-15T09:27:02.700Z,18.36
2018-03-15T09:29:30.334Z,18.77
2018-03-15T09:31:57.989Z,18.23
2018-03-15T09:34:25.639Z,18.71
2018-03-15T09:36:53.177Z,18.98
2018-03-15T09:39:20.894Z,19.59
2018-03-15T09:41:48.482Z,19.68
2018-03-15T09:44:16.082Z,19.32
2018-03-15T09:46:43.747Z,19.37
2018-03-15T09:49:11.418Z,19.28
2018-03-15T09:51:39.068Z,19.26
2018-03-15T09:54:06.656Z,19.58
2018-03-15T09:56:34.321Z,19.42
2018-03-15T09:59:01.971Z,19.24
2018-03-15T10:01:29.694Z,19.66
2018-03-15T10:03:57.356Z,19.98
2018-03-15T10:06:25.020Z,19.73
2018-03-15T10:08:52.674Z,19.82
2018-03-15T10:11:20.289Z,19.60
2018-03-15T10:13:47.889Z,20.03
2018-03-15T10:16:15.486Z,20.06
2018-03-15T10:18:43.073Z,20.27
2018-03-15T10:21:10.662Z,20.49
2018-03-15T10:23:38.412Z,20.68
2018-03-15T10:26:06.083Z,20.43
2018-03-15T10:28:33.667Z,19.84
2018-03-15T10:31:01.316Z,19.67
2018-03-15T10:33:34.387Z,19.97
2018-03-15T10:36:01.998Z,20.50
2018-03-15T10:38:29.647Z,21.43
2018-03-15T10:40:57.322Z,21.81
2018-03-15T10:43:24.972Z,21.65
2018-03-15T10:45:52.626Z,22.00
2018-03-15T10:48:20.222Z,22.22
2018-03-15T10:50:47.815Z,21.78
2018-03-15T10:53:15.394Z,21.98
2018-03-15T10:55:43.026Z,22.47
2018-03-15T10:58:10.641Z,22.34
2018-03-15T11:00:43.759Z,22.27
2018-03-15T11:03:17.449Z,23.08
2018-03-15T11:05:46.538Z,23.49
2018-03-15T11:08:24.911Z,23.87
2018-03-15T11:10:52.490Z,23.82
2018-03-15T11:13:20.166Z,23.45
2018-03-15T11:15:47.836Z,23.50
2018-03-15T11:18:15.515Z,24.04
2018-03-15T11:20:43.121Z,23.81
2018-03-15T11:23:10.762Z,24.19
2018-03-15T11:25:38.377Z,23.94
2018-03-15T11:28:06.030Z,24.64
2018-03-15T11:30:33.617Z,24.33
2018-03-15T11:33:01.222Z,24.34
2018-03-15T11:35:28.875Z,24.98
2018-03-15T11:37:56.568Z,25.51
2018-03-15T11:40:24.162Z,25.65
2018-03-15T11:42:51.774Z,24.84
2018-03-15T11:45:19.436Z,25.04
2018-03-15T11:47:47.051Z,23.90
2018-03-15T11:50:14.658Z,22.72
2018-03-15T11:52:42.246Z,22.37
2018-03-15T11:55:09.846Z,22.11
2018-03-15T11:57:37.433Z,23.04
2018-03-15T12:00:05.111Z,23.10
2018-03-15T12:02:32.687Z,23.25
2018-03-15T12:05:00.358Z,22.40
2018-03-15T12:07:27.963Z,22.06
2018-03-15T12:09:55.621Z,21.21
2018-03-15T12:12:23.299Z,21.88
2018-03-15T12:14:50.884Z,22.24
2018-03-15T12:17:18.493Z,21.51
2018-03-15T12:19:46.082Z,21.39
2018-03-15T12:22:13.652Z,21.00
2018-03-15T12:24:41.240Z,21.41
2018-03-15T12:27:08.866Z,20.92
2018-03-15T12:29:36.438Z,21.02
2018-03-15T12:32:04.056Z,22.03
2018-03-15T12:34:31.700Z,23.22
2018-03-15T12:36:59.266Z,23.38
2018-03-15T12:39:26.837Z,22.45
2018-03-15T12:41:54.474Z,21.63
2018-03-15T12:44:22.065Z,20.74
2018-03-15T12:46:49.705Z,20.11
2018-03-15T12:49:17.327Z,19.86
2018-03-15T12:51:44.970Z,19.48
2018-03-15T12:54:12.535Z,19.49
2018-03-15T12:56:40.179Z,19.18
2018-03-15T12:59:07.818Z,18.89
2018-03-15T13:01:35.382Z,19.05
2018-03-15T13:04:03.026Z,18.92
2018-03-15T13:06:30.592Z,18.79
2018-03-15T13:08:58.166Z,18.81
2018-03-15T13:11:25.735Z,18.80
2018-03-15T13:13:53.355Z,18.69
2018-03-15T13:16:20.923Z,18.54
2018-03-15T13:18:48.493Z,18.46
2018-03-15T13:21:16.066Z,18.30
2018-03-15T13:23:43.630Z,18.05
2018-03-15T13:26:11.283Z,18.08
2018-03-15T13:28:38.849Z,18.12
2018-03-15T13:31:06.411Z,18.16
2018-03-15T13:33:33.983Z,18.12
2018-03-15T13:36:01.542Z,18.03
2018-03-15T13:38:29.120Z,18.05
2018-03-15T13:40:56.685Z,18.09
2018-03-15T13:43:24.255Z,18.14
2018-03-15T13:45:51.885Z,18.07
2018-03-15T13:48:19.445Z,18.03
2018-03-15T13:50:47.025Z,17.99
2018-03-15T13:53:14.604Z,17.98
2018-03-15T13:55:42.248Z,17.98
2018-03-15T13:58:09.881Z,18.11
2018-03-15T14:00:37.508Z,18.15
2018-03-15T14:03:05.079Z,18.09
2018-03-15T14:05:32.722Z,17.99
2018-03-15T14:08:00.289Z,17.88
2018-03-15T14:10:27.875Z,17.78
2018-03-15T14:12:55.517Z,17.67
2018-03-15T14:15:23.160Z,17.62
2018-03-15T14:17:50.795Z,17.61
2018-03-15T14:20:18.439Z,17.63
2018-03-15T14:22:46.054Z,17.70
2018-03-15T14:25:13.642Z,17.63
2018-03-15T14:27:41.274Z,17.45
2018-03-15T14:30:08.856Z,17.35
2018-03-15T14:32:36.431Z,17.22
2018-03-15T14:35:04.808Z,17.16
2018-03-15T14:37:32.383Z,17.12
2018-03-15T14:40:00.059Z,17.09
2018-03-15T14:42:27.694Z,17.11
2018-03-15T14:44:55.325Z,17.19
2018-03-15T14:47:22.900Z,17.20
2018-03-15T14:49:50.530Z,17.19
2018-03-15T14:52:18.114Z,17.09
2018-03-15T14:54:45.742Z,17.08
2018-03-15T14:57:13.318Z,16.98
2018-03-15T14:59:40.914Z,16.86
2018-03-15T15:02:08.523Z,16.76
2018-03-15T15:04:36.163Z,16.63
2018-03-15T15:07:03.739Z,16.46
2018-03-15T15:09:31.367Z,16.44
2018-03-15T15:11:59.011Z,16.27
2018-03-15T15:14:26.627Z,16.12
2018-03-15T15:16:54.194Z,16.05
2018-03-15T15:19:21.826Z,15.99
2018-03-15T15:21:49.467Z,15.98
2018-03-15T15:24:17.038Z,15.95
2018-03-15T15:26:44.731Z,15.99
2018-03-15T15:29:12.313Z,16.04
2018-03-15T15:31:39.947Z,16.09
2018-03-15T15:34:07.531Z,16.11
2018-03-15T15:36:35.095Z,16.13
2018-03-15T15:39:02.703Z,16.14
2018-03-15T15:41:30.362Z,16.20
2018-03-15T15:43:57.957Z,16.24
2018-03-15T15:46:25.538Z,16.27
2018-03-15T15:48:53.135Z,16.28
2018-03-15T15:51:20.806Z,16.26
2018-03-15T15:53:48.382Z,16.16
2018-03-15T15:56:15.946Z,16.04
2018-03-15T15:58:43.575Z,15.90
2018-03-15T16:01:11.165Z,15.78
2018-03-15T16:03:38.743Z,15.61
2018-03-15T16:06:06.413Z,15.37
2018-03-15T16:08:33.993Z,15.21
2018-03-15T16:11:01.641Z,14.96
2018-03-15T16:13:29.270Z,14.79
2018-03-15T16:15:56.905Z,14.64
2018-03-15T16:18:24.489Z,14.49
2018-03-15T16:20:52.130Z,14.37
2018-03-15T16:23:19.714Z,14.27
2018-03-15T16:25:47.350Z,14.15
2018-03-15T16:28:14.983Z,14.07
2018-03-15T16:30:42.547Z,13.94
2018-03-15T16:33:10.115Z,13.87
2018-03-15T16:35:37.698Z,13.78
2018-03-15T16:38:05.267Z,13.68
2018-03-15T16:40:32.899Z,13.57
2018-03-15T16:43:00.534Z,13.49
2018-03-15T16:45:28.111Z,13.39
2018-03-15T16:47:55.755Z,13.29
2018-03-15T16:50:23.377Z,13.20
2018-03-15T16:52:50.946Z,13.09
2018-03-15T16:55:18.582Z,13.05
2018-03-15T16:57:46.167Z,12.96
2018-03-15T17:00:13.763Z,12.85
2018-03-15T17:02:41.410Z,12.79
2018-03-15T17:05:08.983Z,12.65
2018-03-15T17:07:36.705Z,12.59
2018-03-15T17:10:04.339Z,12.50
2018-03-15T17:12:31.963Z,12.37
2018-03-15T17:14:59.562Z,12.25
2018-03-15T17:17:27.198Z,12.16
2018-03-15T17:19:54.913Z,12.07
2018-03-15T17:22:22.542Z,11.92
2018-03-15T17:24:50.238Z,11.79
2018-03-15T17:27:17.804Z,11.68
2018-03-15T17:29:45.391Z,11.63
2018-03-15T17:32:12.974Z,11.58
2018-03-15T17:34:40.543Z,11.59
2018-03-15T17:37:08.251Z,11.56
2018-03-15T17:39:35.885Z,11.55
2018-03-15T17:42:03.520Z,11.58
2018-03-15T17:44:31.171Z,11.55
2018-03-15T17:46:58.810Z,11.60
2018-03-15T17:49:26.446Z,11.69
2018-03-15T17:51:54.018Z,11.80
2018-03-15T17:54:21.669Z,11.90
2018-03-15T17:56:49.234Z,11.96
2018-03-15T17:59:16.863Z,12.02
2018-03-15T18:01:44.452Z,12.05
2018-03-15T18:04:12.023Z,12.05
2018-03-15T18:06:39.619Z,12.06
2018-03-15T18:09:07.251Z,12.08
2018-03-15T18:11:34.941Z,12.11
2018-03-15T18:14:02.579Z,12.11
2018-03-15T18:16:32.033Z,12.05
2018-03-15T18:18:59.620Z,12.06
2018-03-15T18:21:27.257Z,12.03
2018-03-15T18:23:54.840Z,12.02
2018-03-15T18:26:22.468Z,12.05
2018-03-15T18:28:50.142Z,12.08
2018-03-15T18:31:17.779Z,12.10
2018-03-15T18:33:47.128Z,12.11
2018-03-15T18:36:14.694Z,12.07
2018-03-15T18:38:43.304Z,12.00
2018-03-15T18:41:10.874Z,11.98
2018-03-15T18:43:38.508Z,11.94
2018-03-15T18:46:06.151Z,11.94
2018-03-15T18:48:33.719Z,11.93
2018-03-15T18:51:02.196Z,11.89
2018-03-15T18:53:29.821Z,11.88
2018-03-15T18:55:58.407Z,11.87
2018-03-15T18:58:26.044Z,11.82
2018-03-15T19:00:53.620Z,11.84
2018-03-15T19:03:21.211Z,11.85
2018-03-15T19:05:48.794Z,11.85
2018-03-15T19:08:17.091Z,11.79
2018-03-15T19:10:44.662Z,11.76
2018-03-15T19:13:12.299Z,11.84
2018-03-15T19:15:39.882Z,11.92
2018-03-15T19:18:07.459Z,12.01
2018-03-15T19:20:35.059Z,12.07
2018-03-15T19:23:02.630Z,12.09
2018-03-15T19:25:30.206Z,12.15
2018-03-15T19:27:57.783Z,12.14
2018-03-15T19:30:25.428Z,12.16
2018-03-15T19:32:53.961Z,12.21
2018-03-15T19:35:21.534Z,12.25
2018-03-15T19:37:49.149Z,12.26
2018-03-15T19:40:16.716Z,12.21
2018-03-15T19:42:44.303Z,12.19
2018-03-15T19:45:11.871Z,12.18
2018-03-15T19:47:39.502Z,12.09
2018-03-15T19:50:08.222Z,11.80
2018-03-15T19:52:35.856Z,11.58
2018-03-15T19:55:03.464Z,11.36
2018-03-15T19:57:31.042Z,11.17
2018-03-15T19:59:58.633Z,11.02
2018-03-15T20:02:26.253Z,10.89
2018-03-15T20:04:53.831Z,10.83
2018-03-15T20:07:21.455Z,10.81
2018-03-15T20:09:49.087Z,10.72
2018-03-15T20:12:16.708Z,10.69
2018-03-15T20:14:44.286Z,10.67
2018-03-15T20:17:11.919Z,10.60
2018-03-15T20:19:39.487Z,10.56
2018-03-15T20:22:07.072Z,10.56
2018-03-15T20:24:34.759Z,10.62
2018-03-15T20:27:02.387Z,10.76
2018-03-15T20:29:29.971Z,10.74
2018-03-15T20:31:57.600Z,10.63
2018-03-15T20:34:25.184Z,10.67
2018-03-15T20:36:52.761Z,10.67
2018-03-15T20:39:26.087Z,10.58
2018-03-15T20:41:53.725Z,10.54
2018-03-15T20:44:21.294Z,10.55
2018-03-15T20:46:54.574Z,10.45
2018-03-15T20:49:22.143Z,10.42
2018-03-15T20:51:49.770Z,10.53
2018-03-15T20:54:17.333Z,10.54
2018-03-15T20:56:44.913Z,10.37
2018-03-15T20:59:12.485Z,10.29
2018-03-15T21:01:40.042Z,10.41
2018-03-15T21:04:07.630Z,10.32
2018-03-15T21:06:35.256Z,10.22
2018-03-15T21:09:02.832Z,10.17
2018-03-15T21:11:30.452Z,10.61
2018-03-15T21:13:58.026Z,10.76
2018-03-15T21:16:25.586Z,10.59
2018-03-15T21:18:53.146Z,10.41
2018-03-15T21:21:20.743Z,10.30
2018-03-15T21:23:48.310Z,10.32
2018-03-15T21:26:15.947Z,10.24
2018-03-15T21:28:43.579Z,10.17
2018-03-15T21:31:11.163Z,10.04
2018-03-15T21:33:38.722Z,9.95
2018-03-15T21:36:06.286Z,9.92
2018-03-15T21:38:33.876Z,9.88
2018-03-15T21:41:01.440Z,9.85
2018-03-15T21:43:29.035Z,9.79
2018-03-15T21:45:56.598Z,9.65
2018-03-15T21:48:24.168Z,9.52
2018-03-15T21:50:51.733Z,9.39
2018-03-15T21:53:19.301Z,9.28
2018-03-15T21:55:46.870Z,9.19
2018-03-15T21:58:14.434Z,9.10
2018-03-15T22:00:42.064Z,9.01
2018-03-15T22:03:09.683Z,8.97
2018-03-15T22:05:37.317Z,8.96
2018-03-15T22:08:04.890Z,8.87
2018-03-15T22:10:32.453Z,8.85
2018-03-15T22:13:00.087Z,8.81
2018-03-15T22:15:27.646Z,8.79
2018-03-15T22:17:55.207Z,8.97
2018-03-15T22:20:22.831Z,9.06
2018-03-15T22:22:50.455Z,9.19
2018-03-15T22:25:18.010Z,9.38
2018-03-15T22:27:45.644Z,9.48
2018-03-15T22:30:13.203Z,9.61
2018-03-15T22:32:40.766Z,9.67
2018-03-15T22:35:08.386Z,9.71
2018-03-15T22:37:35.954Z,9.72
2018-03-15T22:40:03.548Z,9.61
2018-03-15T22:42:31.187Z,9.53
2018-03-15T22:44:58.755Z,9.50
2018-03-15T22:47:26.362Z,9.64
2018-03-15T22:49:53.976Z,9.71
2018-03-15T22:52:21.590Z,9.96
2018-03-15T22:54:49.153Z,10.10
2018-03-15T22:57:16.750Z,10.23
2018-03-15T22:59:44.373Z,10.31
2018-03-15T23:02:11.934Z,10.38
2018-03-15T23:04:39.551Z,10.42
2018-03-15T23:07:07.119Z,10.36
2018-03-15T23:09:34.738Z,10.28
2018-03-15T23:12:02.320Z,10.22
2018-03-15T23:14:29.886Z,10.19
2018-03-15T23:16:57.542Z,10.19
2018-03-15T23:19:25.168Z,10.19
2018-03-15T23:21:52.855Z,10.08
2018-03-15T23:24:20.411Z,10.04
2018-03-15T23:26:47.981Z,9.90
2018-03-15T23:29:15.567Z,9.77
2018-03-15T23:31:43.126Z,9.56
2018-03-15T23:34:10.735Z,9.37
2018-03-15T23:36:38.294Z,9.27
2018-03-15T23:39:05.850Z,9.10
2018-03-15T23:41:33.422Z,9.05
2018-03-15T23:44:00.995Z,9.00
2018-03-15T23:46:28.623Z,8.93
2018-03-15T23:48:56.178Z,8.89
2018-03-15T23:51:23.790Z,8.83
2018-03-15T23:53:51.343Z,8.82
2018-03-15T23:56:18.958Z,8.83
2018-03-15T23:58:46.602Z,9.00
